sensor_id;sensor_type;location;lat;lon;timestamp;pressure;altitude;pressure_sealevel;temperature;humidity
73240;BME280;61452;40.054;4.110;2023-05-06T00:02:16;101825.47;;;20.79;57.02
73240;BME280;61452;40.054;4.110;2023-05-06T00:07:19;101822.66;;;20.80;56.98
73240;BME280;61452;40.054;4.110;2023-05-06T00:12:21;101821.97;;;20.78;56.80
73240;BME280;61452;40.054;4.110;2023-05-06T00:17:23;101821.00;;;20.79;56.68
73240;BME280;61452;40.054;4.110;2023-05-06T00:22:25;101818.19;;;20.81;56.64
73240;BME280;61452;40.054;4.110;2023-05-06T00:27:27;101822.56;;;20.82;56.50
73240;BME280;61452;40.054;4.110;2023-05-06T00:32:29;101808.50;;;20.80;56.72
73240;BME280;61452;40.054;4.110;2023-05-06T00:37:32;101805.84;;;20.80;56.50
73240;BME280;61452;40.054;4.110;2023-05-06T00:42:34;101803.19;;;20.80;56.69
73240;BME280;61452;40.054;4.110;2023-05-06T00:47:36;101796.75;;;20.82;56.49
73240;BME280;61452;40.054;4.110;2023-05-06T00:52:39;101794.94;;;20.83;56.38
73240;BME280;61452;40.054;4.110;2023-05-06T00:57:41;101789.72;;;20.81;56.33
73240;BME280;61452;40.054;4.110;2023-05-06T01:02:45;101781.72;;;20.81;56.46
73240;BME280;61452;40.054;4.110;2023-05-06T01:07:55;101779.19;;;20.80;56.39
73240;BME280;61452;40.054;4.110;2023-05-06T01:13:06;101780.84;;;20.81;56.49
73240;BME280;61452;40.054;4.110;2023-05-06T01:18:11;101767.66;;;20.79;56.50
73240;BME280;61452;40.054;4.110;2023-05-06T01:23:17;101770.34;;;20.79;56.52
73240;BME280;61452;40.054;4.110;2023-05-06T01:28:19;101757.72;;;20.81;56.45
73240;BME280;61452;40.054;4.110;2023-05-06T01:39:17;101757.84;;;20.80;56.38
73240;BME280;61452;40.054;4.110;2023-05-06T01:44:21;101757.72;;;20.81;56.27
73240;BME280;61452;40.054;4.110;2023-05-06T01:49:25;101746.19;;;20.81;56.33
73240;BME280;61452;40.054;4.110;2023-05-06T01:54:28;101741.72;;;20.81;56.52
73240;BME280;61452;40.054;4.110;2023-05-06T01:59:30;101741.59;;;20.83;56.17
73240;BME280;61452;40.054;4.110;2023-05-06T02:04:32;101741.84;;;20.80;56.38
73240;BME280;61452;40.054;4.110;2023-05-06T02:09:34;101739.19;;;20.80;56.17
73240;BME280;61452;40.054;4.110;2023-05-06T02:14:37;101733.97;;;20.78;56.24
73240;BME280;61452;40.054;4.110;2023-05-06T02:19:39;101731.19;;;20.80;56.13
73240;BME280;61452;40.054;4.110;2023-05-06T02:24:41;101733.22;;;20.76;56.20
73240;BME280;61452;40.054;4.110;2023-05-06T02:29:43;101733.00;;;20.79;56.42
73240;BME280;61452;40.054;4.110;2023-05-06T02:34:45;101738.19;;;20.81;56.31
73240;BME280;61452;40.054;4.110;2023-05-06T02:39:48;101728.63;;;20.78;56.05
73240;BME280;61452;40.054;4.110;2023-05-06T02:44:50;101729.59;;;20.77;56.25
73240;BME280;61452;40.054;4.110;2023-05-06T02:49:52;101726.06;;;20.77;56.24
73240;BME280;61452;40.054;4.110;2023-05-06T02:54:54;101713.59;;;20.77;56.25
73240;BME280;61452;40.054;4.110;2023-05-06T02:59:56;101714.66;;;20.75;56.39
73240;BME280;61452;40.054;4.110;2023-05-06T03:04:58;101707.41;;;20.77;56.22
73240;BME280;61452;40.054;4.110;2023-05-06T03:10:00;101698.31;;;20.79;56.58
73240;BME280;61452;40.054;4.110;2023-05-06T03:15:07;101688.84;;;20.75;56.23
73240;BME280;61452;40.054;4.110;2023-05-06T03:20:11;101698.56;;;20.76;56.11
73240;BME280;61452;40.054;4.110;2023-05-06T03:25:19;101683.97;;;20.69;56.10
73240;BME280;61452;40.054;4.110;2023-05-06T03:30:22;101689.69;;;20.76;56.25
73240;BME280;61452;40.054;4.110;2023-05-06T03:35:28;101701.31;;;20.75;56.25
73240;BME280;61452;40.054;4.110;2023-05-06T03:40:33;101698.66;;;20.75;56.24
73240;BME280;61452;40.054;4.110;2023-05-06T03:45:35;101706.81;;;20.73;56.20
73240;BME280;61452;40.054;4.110;2023-05-06T03:50:38;101696.13;;;20.73;56.22
73240;BME280;61452;40.054;4.110;2023-05-06T03:55:41;101684.63;;;20.73;56.09
73240;BME280;61452;40.054;4.110;2023-05-06T04:00:45;101686.31;;;20.74;56.13
73240;BME280;61452;40.054;4.110;2023-05-06T04:05:48;101685.47;;;20.73;56.27
73240;BME280;61452;40.054;4.110;2023-05-06T04:10:55;101684.63;;;20.73;56.16
73240;BME280;61452;40.054;4.110;2023-05-06T04:16:04;101672.84;;;20.75;56.37
73240;BME280;61452;40.054;4.110;2023-05-06T04:21:10;101673.59;;;20.77;56.15
73240;BME280;61452;40.054;4.110;2023-05-06T04:26:15;101663.28;;;20.73;56.05
73240;BME280;61452;40.054;4.110;2023-05-06T04:31:19;101670.06;;;20.77;56.11
73240;BME280;61452;40.054;4.110;2023-05-06T04:36:24;101670.91;;;20.77;56.12
73240;BME280;61452;40.054;4.110;2023-05-06T04:41:40;101673.81;;;20.74;56.01
73240;BME280;61452;40.054;4.110;2023-05-06T04:46:45;101673.00;;;20.74;56.16
73240;BME280;61452;40.054;4.110;2023-05-06T04:51:49;101667.75;;;20.72;56.29
73240;BME280;61452;40.054;4.110;2023-05-06T04:56:53;101660.72;;;20.71;56.22
73240;BME280;61452;40.054;4.110;2023-05-06T05:01:55;101665.22;;;20.71;56.18
73240;BME280;61452;40.054;4.110;2023-05-06T05:06:57;101675.88;;;20.71;56.07
73240;BME280;61452;40.054;4.110;2023-05-06T05:12:03;101675.88;;;20.71;56.05
73240;BME280;61452;40.054;4.110;2023-05-06T05:17:09;101671.41;;;20.71;56.29
73240;BME280;61452;40.054;4.110;2023-05-06T05:22:12;101681.81;;;20.74;56.16
73240;BME280;61452;40.054;4.110;2023-05-06T05:27:14;101683.50;;;20.75;56.58
73240;BME280;61452;40.054;4.110;2023-05-06T05:32:17;101685.69;;;20.70;56.22
73240;BME280;61452;40.054;4.110;2023-05-06T05:37:21;101689.31;;;20.69;56.21
73240;BME280;61452;40.054;4.110;2023-05-06T05:42:23;101686.75;;;20.68;56.42
73240;BME280;61452;40.054;4.110;2023-05-06T05:47:26;101688.59;;;20.67;56.41
73240;BME280;61452;40.054;4.110;2023-05-06T05:52:28;101693.78;;;20.69;56.20
73240;BME280;61452;40.054;4.110;2023-05-06T05:57:31;101691.88;;;20.71;56.03
73240;BME280;61452;40.054;4.110;2023-05-06T06:02:33;101690.91;;;20.72;55.80
73240;BME280;61452;40.054;4.110;2023-05-06T06:07:35;101678.66;;;20.69;56.06
73240;BME280;61452;40.054;4.110;2023-05-06T06:12:38;101683.28;;;20.67;56.27
73240;BME280;61452;40.054;4.110;2023-05-06T06:17:40;101670.75;;;20.68;56.29
73240;BME280;61452;40.054;4.110;2023-05-06T06:22:44;101669.94;;;20.67;56.34
73240;BME280;61452;40.054;4.110;2023-05-06T06:27:48;101662.75;;;20.68;56.20
73240;BME280;61452;40.054;4.110;2023-05-06T06:32:51;101667.13;;;20.69;55.86
73240;BME280;61452;40.054;4.110;2023-05-06T06:37:54;101670.75;;;20.68;56.11
73240;BME280;61452;40.054;4.110;2023-05-06T06:42:56;101676.94;;;20.68;56.21
73240;BME280;61452;40.054;4.110;2023-05-06T06:48:22;101678.75;;;20.68;56.01
73240;BME280;61452;40.054;4.110;2023-05-06T06:53:24;101685.94;;;20.67;56.17
73240;BME280;61452;40.054;4.110;2023-05-06T06:58:26;101689.56;;;20.66;56.35
73240;BME280;61452;40.054;4.110;2023-05-06T07:03:28;101696.72;;;20.66;56.31
73240;BME280;61452;40.054;4.110;2023-05-06T07:08:30;101699.28;;;20.67;56.41
73240;BME280;61452;40.054;4.110;2023-05-06T07:13:32;101712.47;;;20.69;56.34
73240;BME280;61452;40.054;4.110;2023-05-06T07:18:34;101696.94;;;20.63;56.42
73240;BME280;61452;40.054;4.110;2023-05-06T07:23:37;101707.28;;;20.67;56.48
73240;BME280;61452;40.054;4.110;2023-05-06T07:28:39;101710.16;;;20.64;56.55
73240;BME280;61452;40.054;4.110;2023-05-06T07:33:41;101723.25;;;20.67;56.48
73240;BME280;61452;40.054;4.110;2023-05-06T07:38:43;101724.94;;;20.68;56.02
73240;BME280;61452;40.054;4.110;2023-05-06T07:43:46;101723.25;;;20.67;56.16
73240;BME280;61452;40.054;4.110;2023-05-06T07:48:48;101724.34;;;20.65;56.45
73240;BME280;61452;40.054;4.110;2023-05-06T07:53:50;101730.53;;;20.65;56.33
73240;BME280;61452;40.054;4.110;2023-05-06T07:58:55;101728.59;;;20.67;56.11
73240;BME280;61452;40.054;4.110;2023-05-06T08:03:57;101716.09;;;20.68;56.07
73240;BME280;61452;40.054;4.110;2023-05-06T08:09:01;101719.84;;;20.65;56.24
73240;BME280;61452;40.054;4.110;2023-05-06T08:14:03;101731.25;;;20.67;56.17
73240;BME280;61452;40.054;4.110;2023-05-06T08:19:05;101718.25;;;20.63;56.06
73240;BME280;61452;40.054;4.110;2023-05-06T08:24:07;101728.72;;;20.66;56.12
73240;BME280;61452;40.054;4.110;2023-05-06T08:29:11;101741.28;;;20.64;56.31
73240;BME280;61452;40.054;4.110;2023-05-06T08:34:14;101746.41;;;20.67;56.26
73240;BME280;61452;40.054;4.110;2023-05-06T08:39:19;101741.94;;;20.67;56.08
73240;BME280;61452;40.054;4.110;2023-05-06T08:44:22;101757.06;;;20.67;56.13
73240;BME280;61452;40.054;4.110;2023-05-06T08:49:25;101765.94;;;20.67;56.26
73240;BME280;61452;40.054;4.110;2023-05-06T08:54:27;101749.94;;;20.67;56.15
73240;BME280;61452;40.054;4.110;2023-05-06T08:59:30;101762.25;;;20.68;56.23
73240;BME280;61452;40.054;4.110;2023-05-06T09:04:34;101751.59;;;20.68;56.24
73240;BME280;61452;40.054;4.110;2023-05-06T09:09:36;101749.78;;;20.69;56.36
73240;BME280;61452;40.054;4.110;2023-05-06T09:14:38;101743.75;;;20.67;56.48
73240;BME280;61452;40.054;4.110;2023-05-06T09:19:41;101748.94;;;20.68;56.40
73240;BME280;61452;40.054;4.110;2023-05-06T09:24:43;101762.25;;;20.68;56.05
73240;BME280;61452;40.054;4.110;2023-05-06T09:30:05;101757.94;;;20.67;56.03
73240;BME280;61452;40.054;4.110;2023-05-06T09:35:08;101755.25;;;20.67;56.50
73240;BME280;61452;40.054;4.110;2023-05-06T09:40:12;101745.31;;;20.69;56.44
73240;BME280;61452;40.054;4.110;2023-05-06T09:45:15;101752.44;;;20.69;56.31
73240;BME280;61452;40.054;4.110;2023-05-06T09:50:20;101760.22;;;20.72;56.34
73240;BME280;61452;40.054;4.110;2023-05-06T09:55:22;101761.31;;;20.69;56.29
73240;BME280;61452;40.054;4.110;2023-05-06T10:00:29;101757.56;;;20.72;55.90
73240;BME280;61452;40.054;4.110;2023-05-06T10:05:33;101757.56;;;20.72;56.13
73240;BME280;61452;40.054;4.110;2023-05-06T10:10:36;101774.53;;;20.71;56.10
73240;BME280;61452;40.054;4.110;2023-05-06T10:15:44;101776.34;;;20.70;56.18
73240;BME280;61452;40.054;4.110;2023-05-06T10:20:48;101769.31;;;20.69;56.41
73240;BME280;61452;40.054;4.110;2023-05-06T10:26:01;101766.63;;;20.69;56.29
73240;BME280;61452;40.054;4.110;2023-05-06T10:31:10;101764.72;;;20.71;56.10
73240;BME280;61452;40.054;4.110;2023-05-06T10:36:21;101747.66;;;20.74;56.20
73240;BME280;61452;40.054;4.110;2023-05-06T10:41:24;101738.91;;;20.72;56.21
73240;BME280;61452;40.054;4.110;2023-05-06T10:46:29;101735.38;;;20.71;56.11
73240;BME280;61452;40.054;4.110;2023-05-06T10:51:32;101721.19;;;20.71;56.22
73240;BME280;61452;40.054;4.110;2023-05-06T10:56:36;101714.91;;;20.72;56.29
73240;BME280;61452;40.054;4.110;2023-05-06T11:01:41;101713.31;;;20.69;56.53
73240;BME280;61452;40.054;4.110;2023-05-06T11:06:45;101713.94;;;20.73;56.34
73240;BME280;61452;40.054;4.110;2023-05-06T11:12:04;101720.25;;;20.72;56.53
73240;BME280;61452;40.054;4.110;2023-05-06T11:17:31;101705.94;;;20.73;56.49
73240;BME280;61452;40.054;4.110;2023-05-06T11:22:40;101705.09;;;20.72;56.26
73240;BME280;61452;40.054;4.110;2023-05-06T11:27:42;101705.69;;;20.76;56.27
73240;BME280;61452;40.054;4.110;2023-05-06T11:32:44;101706.66;;;20.75;55.91
73240;BME280;61452;40.054;4.110;2023-05-06T11:37:47;101702.31;;;20.74;56.32
73240;BME280;61452;40.054;4.110;2023-05-06T11:42:49;101705.00;;;20.74;56.46
73240;BME280;61452;40.054;4.110;2023-05-06T11:47:53;101700.25;;;20.77;55.67
73240;BME280;61452;40.054;4.110;2023-05-06T11:52:55;101688.84;;;20.75;56.10
73240;BME280;61452;40.054;4.110;2023-05-06T11:57:58;101694.19;;;20.75;56.53
73240;BME280;61452;40.054;4.110;2023-05-06T12:03:01;101686.19;;;20.75;56.62
73240;BME280;61452;40.054;4.110;2023-05-06T12:08:04;101689.69;;;20.76;56.51
73240;BME280;61452;40.054;4.110;2023-05-06T12:13:20;101700.16;;;20.79;56.50
73240;BME280;61452;40.054;4.110;2023-05-06T12:18:23;101700.84;;;20.81;56.41
73240;BME280;61452;40.054;4.110;2023-05-06T12:23:25;101683.41;;;20.77;56.51
73240;BME280;61452;40.054;4.110;2023-05-06T12:28:29;101664.63;;;20.78;56.63
73240;BME280;61452;40.054;4.110;2023-05-06T12:33:51;101663.78;;;20.78;56.70
73240;BME280;61452;40.054;4.110;2023-05-06T12:38:57;101673.47;;;20.79;56.80
73240;BME280;61452;40.054;4.110;2023-05-06T12:43:59;101677.97;;;20.78;56.72
73240;BME280;61452;40.054;4.110;2023-05-06T12:49:02;101676.00;;;20.80;56.80
73240;BME280;61452;40.054;4.110;2023-05-06T12:54:30;101677.00;;;20.79;56.59
73240;BME280;61452;40.054;4.110;2023-05-06T12:59:34;101683.03;;;20.81;56.13
73240;BME280;61452;40.054;4.110;2023-05-06T13:04:37;101676.00;;;20.80;56.79
73240;BME280;61452;40.054;4.110;2023-05-06T13:09:39;101658.19;;;20.81;56.86
73240;BME280;61452;40.054;4.110;2023-05-06T13:14:41;101663.53;;;20.81;56.86
73240;BME280;61452;40.054;4.110;2023-05-06T13:19:43;101651.03;;;20.81;57.00
73240;BME280;61452;40.054;4.110;2023-05-06T13:24:46;101664.38;;;20.81;57.02
73240;BME280;61452;40.054;4.110;2023-05-06T13:29:48;101646.66;;;20.80;56.87
73240;BME280;61452;40.054;4.110;2023-05-06T13:34:50;101641.22;;;20.82;56.80
73240;BME280;61452;40.054;4.110;2023-05-06T13:39:52;101646.44;;;20.83;56.85
73240;BME280;61452;40.054;4.110;2023-05-06T13:44:54;101641.13;;;20.83;56.74
73240;BME280;61452;40.054;4.110;2023-05-06T13:49:56;101631.41;;;20.82;56.71
73240;BME280;61452;40.054;4.110;2023-05-06T13:54:58;101640.84;;;20.86;56.60
73240;BME280;61452;40.054;4.110;2023-05-06T14:00:00;101632.75;;;20.88;56.20
73240;BME280;61452;40.054;4.110;2023-05-06T14:05:07;101621.47;;;20.84;56.82
73240;BME280;61452;40.054;4.110;2023-05-06T14:10:10;101613.47;;;20.84;57.01
73240;BME280;61452;40.054;4.110;2023-05-06T14:15:12;101614.19;;;20.86;56.62
73240;BME280;61452;40.054;4.110;2023-05-06T14:20:18;101600.75;;;20.88;56.84
73240;BME280;61452;40.054;4.110;2023-05-06T14:25:20;101592.84;;;20.86;56.96
73240;BME280;61452;40.054;4.110;2023-05-06T14:30:27;101597.09;;;20.89;57.02
73240;BME280;61452;40.054;4.110;2023-05-06T14:35:30;101592.63;;;20.89;57.00
73240;BME280;61452;40.054;4.110;2023-05-06T14:40:32;101596.38;;;20.87;57.10
73240;BME280;61452;40.054;4.110;2023-05-06T14:45:36;101589.38;;;20.86;57.35
73240;BME280;61452;40.054;4.110;2023-05-06T14:50:38;101581.38;;;20.86;57.26
73240;BME280;61452;40.054;4.110;2023-05-06T14:55:41;101577.59;;;20.88;57.07
73240;BME280;61452;40.054;4.110;2023-05-06T15:00:43;101576.38;;;20.92;57.03
73240;BME280;61452;40.054;4.110;2023-05-06T15:05:45;101576.38;;;20.92;56.92
73240;BME280;61452;40.054;4.110;2023-05-06T15:10:48;101573.09;;;20.89;57.22
73240;BME280;61452;40.054;4.110;2023-05-06T15:15:50;101581.69;;;20.92;57.01
73240;BME280;61452;40.054;4.110;2023-05-06T15:20:52;101574.69;;;20.91;56.93
73240;BME280;61452;40.054;4.110;2023-05-06T15:25:55;101575.78;;;20.89;57.07
73240;BME280;61452;40.054;4.110;2023-05-06T15:30:58;101576.50;;;20.91;56.97
73240;BME280;61452;40.054;4.110;2023-05-06T15:36:00;101562.31;;;20.90;56.92
73240;BME280;61452;40.054;4.110;2023-05-06T15:41:03;101551.53;;;20.92;56.85
73240;BME280;61452;40.054;4.110;2023-05-06T15:46:05;101551.41;;;20.93;57.07
73240;BME280;61452;40.054;4.110;2023-05-06T15:51:07;101549.84;;;20.91;57.16
73240;BME280;61452;40.054;4.110;2023-05-06T15:56:10;101549.69;;;20.92;56.96
73240;BME280;61452;40.054;4.110;2023-05-06T16:01:19;101547.03;;;20.92;57.03
73240;BME280;61452;40.054;4.110;2023-05-06T16:06:41;101542.53;;;20.93;57.00
73240;BME280;61452;40.054;4.110;2023-05-06T16:11:43;101538.22;;;20.92;57.06
73240;BME280;61452;40.054;4.110;2023-05-06T16:16:45;101544.25;;;20.94;57.04
73240;BME280;61452;40.054;4.110;2023-05-06T16:21:47;101544.13;;;20.95;57.01
73240;BME280;61452;40.054;4.110;2023-05-06T16:26:50;101538.69;;;20.97;56.88
73240;BME280;61452;40.054;4.110;2023-05-06T16:31:52;101539.75;;;20.94;56.97
73240;BME280;61452;40.054;4.110;2023-05-06T16:36:54;101543.16;;;20.96;57.06
73240;BME280;61452;40.054;4.110;2023-05-06T16:41:58;101536.13;;;20.95;57.03
73240;BME280;61452;40.054;4.110;2023-05-06T16:47:00;101536.00;;;20.97;56.87
73240;BME280;61452;40.054;4.110;2023-05-06T16:52:03;101532.38;;;20.98;56.81
73240;BME280;61452;40.054;4.110;2023-05-06T16:57:05;101524.72;;;20.93;57.04
73240;BME280;61452;40.054;4.110;2023-05-06T17:02:08;101518.31;;;20.96;56.83
73240;BME280;61452;40.054;4.110;2023-05-06T17:07:10;101521.81;;;20.96;56.83
73240;BME280;61452;40.054;4.110;2023-05-06T17:12:12;101519.16;;;20.96;56.72
73240;BME280;61452;40.054;4.110;2023-05-06T17:17:15;101522.78;;;20.95;56.84
73240;BME280;61452;40.054;4.110;2023-05-06T17:22:17;101528.00;;;20.97;56.82
73240;BME280;61452;40.054;4.110;2023-05-06T17:27:21;101523.53;;;20.97;56.63
73240;BME280;61452;40.054;4.110;2023-05-06T17:32:23;101520.72;;;20.99;56.65
73240;BME280;61452;40.054;4.110;2023-05-06T17:37:25;101519.88;;;20.98;56.62
73240;BME280;61452;40.054;4.110;2023-05-06T17:42:27;101530.53;;;20.98;56.67
73240;BME280;61452;40.054;4.110;2023-05-06T17:47:30;101515.38;;;20.99;56.67
73240;BME280;61452;40.054;4.110;2023-05-06T17:52:32;101506.69;;;20.97;56.74
73240;BME280;61452;40.054;4.110;2023-05-06T17:57:34;101511.88;;;20.98;56.65
73240;BME280;61452;40.054;4.110;2023-05-06T18:02:36;101512.84;;;20.97;56.71
73240;BME280;61452;40.054;4.110;2023-05-06T18:07:39;101504.00;;;20.97;56.59
73240;BME280;61452;40.054;4.110;2023-05-06T18:12:41;101495.84;;;20.98;56.51
73240;BME280;61452;40.054;4.110;2023-05-06T18:17:46;101506.69;;;20.97;56.63
73240;BME280;61452;40.054;4.110;2023-05-06T18:22:48;101494.19;;;20.97;56.44
73240;BME280;61452;40.054;4.110;2023-05-06T18:27:50;101506.69;;;20.97;56.44
73240;BME280;61452;40.054;4.110;2023-05-06T18:32:53;101516.38;;;20.98;56.43
73240;BME280;61452;40.054;4.110;2023-05-06T18:37:57;101509.47;;;20.95;56.44
73240;BME280;61452;40.054;4.110;2023-05-06T18:42:59;101496.34;;;20.92;56.57
73240;BME280;61452;40.054;4.110;2023-05-06T18:48:02;101492.59;;;20.95;56.61
73240;BME280;61452;40.054;4.110;2023-05-06T18:53:04;101515.38;;;20.99;56.51
73240;BME280;61452;40.054;4.110;2023-05-06T18:58:06;101534.19;;;20.97;56.38
73240;BME280;61452;40.054;4.110;2023-05-06T19:03:08;101519.03;;;20.98;56.58
73240;BME280;61452;40.054;4.110;2023-05-06T19:08:11;101524.38;;;20.98;56.50
73240;BME280;61452;40.054;4.110;2023-05-06T19:13:14;101524.38;;;20.98;56.67
73240;BME280;61452;40.054;4.110;2023-05-06T19:18:16;101504.97;;;20.96;56.50
73240;BME280;61452;40.054;4.110;2023-05-06T19:23:18;101495.84;;;20.98;56.41
73240;BME280;61452;40.054;4.110;2023-05-06T19:28:20;101495.28;;;20.95;56.53
73240;BME280;61452;40.054;4.110;2023-05-06T19:33:22;101496.00;;;20.97;56.54
73240;BME280;61452;40.054;4.110;2023-05-06T19:38:28;101538.53;;;20.98;56.52
73240;BME280;61452;40.054;4.110;2023-05-06T19:43:30;101578.69;;;20.97;56.45
73240;BME280;61452;40.054;4.110;2023-05-06T19:48:32;101583.19;;;20.96;56.57
73240;BME280;61452;40.054;4.110;2023-05-06T19:53:37;101587.66;;;20.96;56.66
73240;BME280;61452;40.054;4.110;2023-05-06T19:58:39;101592.03;;;20.97;56.62
73240;BME280;61452;40.054;4.110;2023-05-06T20:03:41;101592.13;;;20.95;56.59
73240;BME280;61452;40.054;4.110;2023-05-06T20:08:44;101613.22;;;20.98;56.62
73240;BME280;61452;40.054;4.110;2023-05-06T20:13:46;101625.59;;;20.99;56.48
73240;BME280;61452;40.054;4.110;2023-05-06T20:18:48;101619.66;;;20.96;56.54
73240;BME280;61452;40.054;4.110;2023-05-06T20:23:52;101609.84;;;20.96;56.48
73240;BME280;61452;40.054;4.110;2023-05-06T20:28:54;101617.84;;;20.96;56.44
73240;BME280;61452;40.054;4.110;2023-05-06T20:33:56;101615.06;;;20.98;56.56
73240;BME280;61452;40.054;4.110;2023-05-06T20:38:58;101617.00;;;20.96;56.48
73240;BME280;61452;40.054;4.110;2023-05-06T20:44:02;101633.75;;;20.98;56.43
73240;BME280;61452;40.054;4.110;2023-05-06T20:49:05;101613.38;;;20.97;56.46
73240;BME280;61452;40.054;4.110;2023-05-06T20:54:07;101595.41;;;20.99;56.51
73240;BME280;61452;40.054;4.110;2023-05-06T20:59:09;101599.66;;;21.02;56.42
73240;BME280;61452;40.054;4.110;2023-05-06T21:04:11;101599.78;;;21.00;56.51
73240;BME280;61452;40.054;4.110;2023-05-06T21:09:14;101592.03;;;20.97;56.44
73240;BME280;61452;40.054;4.110;2023-05-06T21:14:16;101560.03;;;20.97;56.54
73240;BME280;61452;40.054;4.110;2023-05-06T21:19:18;101589.34;;;20.97;56.54
73240;BME280;61452;40.054;4.110;2023-05-06T21:24:20;101584.88;;;20.97;56.54
73240;BME280;61452;40.054;4.110;2023-05-06T21:29:22;101606.22;;;20.97;56.60
73240;BME280;61452;40.054;4.110;2023-05-06T21:34:24;101614.22;;;20.97;56.68
73240;BME280;61452;40.054;4.110;2023-05-06T21:39:27;101616.88;;;20.97;56.48
73240;BME280;61452;40.054;4.110;2023-05-06T21:44:29;101640.88;;;20.97;56.55
73240;BME280;61452;40.054;4.110;2023-05-06T21:49:31;101622.06;;;20.99;56.54
73240;BME280;61452;40.054;4.110;2023-05-06T21:54:33;101614.34;;;20.96;56.32
73240;BME280;61452;40.054;4.110;2023-05-06T21:59:35;101587.53;;;20.97;56.36
73240;BME280;61452;40.054;4.110;2023-05-06T22:04:37;101592.63;;;21.00;56.40
73240;BME280;61452;40.054;4.110;2023-05-06T22:09:40;101613.97;;;21.00;56.40
73240;BME280;61452;40.054;4.110;2023-05-06T22:14:42;101639.78;;;21.00;56.44
73240;BME280;61452;40.054;4.110;2023-05-06T22:19:44;101628.25;;;20.99;56.47
73240;BME280;61452;40.054;4.110;2023-05-06T22:24:46;101641.75;;;20.98;56.50
73240;BME280;61452;40.054;4.110;2023-05-06T22:29:49;101642.34;;;21.02;56.45
73240;BME280;61452;40.054;4.110;2023-05-06T22:34:51;101672.53;;;21.02;56.53
73240;BME280;61452;40.054;4.110;2023-05-06T22:39:56;101671.19;;;20.96;56.48
73240;BME280;61452;40.054;4.110;2023-05-06T22:44:58;101658.47;;;21.00;56.51
73240;BME280;61452;40.054;4.110;2023-05-06T22:50:00;101670.22;;;20.97;56.50
73240;BME280;61452;40.054;4.110;2023-05-06T22:55:03;101673.50;;;21.01;56.50
73240;BME280;61452;40.054;4.110;2023-05-06T23:00:07;101677.03;;;21.02;56.40
73240;BME280;61452;40.054;4.110;2023-05-06T23:05:09;101669.25;;;20.98;56.60
73240;BME280;61452;40.054;4.110;2023-05-06T23:10:12;101662.94;;;20.99;56.50
73240;BME280;61452;40.054;4.110;2023-05-06T23:15:14;101671.09;;;20.98;56.38
73240;BME280;61452;40.054;4.110;2023-05-06T23:20:16;101665.59;;;20.99;56.29
73240;BME280;61452;40.054;4.110;2023-05-06T23:25:18;101674.56;;;20.98;56.32
73240;BME280;61452;40.054;4.110;2023-05-06T23:30:21;101679.69;;;21.02;56.27
73240;BME280;61452;40.054;4.110;2023-05-06T23:35:23;101679.56;;;21.03;56.31
73240;BME280;61452;40.054;4.110;2023-05-06T23:40:25;101678.94;;;20.99;56.19
73240;BME280;61452;40.054;4.110;2023-05-06T23:45:27;101686.09;;;20.99;56.41
73240;BME280;61452;40.054;4.110;2023-05-06T23:50:29;101678.84;;;21.01;56.31
73240;BME280;61452;40.054;4.110;2023-05-06T23:55:31;101659.31;;;21.00;56.35
